createdAt,value
2022-09-27T00:00:44.393Z,55.08
2022-09-27T00:03:15.524Z,54.19
2022-09-27T00:05:45.823Z,54.64
2022-09-27T00:08:16.498Z,54.17
2022-09-27T00:10:47.315Z,54.77
2022-09-27T00:13:17.867Z,54.29
2022-09-27T00:15:47.869Z,54.98
2022-09-27T00:18:18.280Z,55.76
2022-09-27T00:20:48.845Z,55.00
2022-09-27T00:23:18.956Z,54.76
2022-09-27T00:26:02.214Z,54.23
2022-09-27T00:28:32.659Z,55.31
2022-09-27T00:31:03.953Z,55.73
2022-09-27T00:33:34.518Z,55.50
2022-09-27T00:36:08.585Z,54.28
2022-09-27T00:38:38.866Z,54.69
2022-09-27T00:41:09.687Z,54.40
2022-09-27T00:43:50.732Z,53.71
2022-09-27T00:46:38.634Z,53.39
2022-09-27T00:49:25.773Z,53.21
2022-09-27T00:52:04.238Z,53.89
2022-09-27T00:54:38.622Z,53.75
2022-09-27T00:57:10.471Z,54.47
2022-09-27T00:59:43.604Z,54.47
2022-09-27T01:02:15.323Z,54.12
2022-09-27T01:04:46.163Z,52.59
2022-09-27T01:07:17.235Z,53.50
2022-09-27T01:09:47.870Z,53.74
2022-09-27T01:12:56.808Z,53.08
2022-09-27T01:15:53.342Z,52.51
2022-09-27T01:19:09.396Z,52.53
2022-09-27T01:22:05.837Z,52.79
2022-09-27T01:24:59.544Z,52.43
2022-09-27T01:27:35.821Z,52.46
2022-09-27T01:30:27.532Z,52.33
2022-09-27T01:33:20.449Z,52.76
2022-09-27T01:36:24.981Z,52.10
2022-09-27T01:39:35.029Z,52.27
2022-09-27T01:42:46.596Z,52.74
2022-09-27T01:45:45.692Z,51.99
2022-09-27T01:48:30.571Z,52.57
2022-09-27T01:51:27.371Z,52.04
2022-09-27T01:54:04.413Z,52.29
2022-09-27T01:56:43.079Z,52.50
2022-09-27T01:59:58.423Z,52.33
2022-09-27T02:03:23.685Z,51.79
2022-09-27T02:06:20.238Z,52.38
2022-09-27T02:09:08.462Z,52.73
2022-09-27T02:12:08.756Z,52.17
2022-09-27T02:14:43.601Z,52.28
2022-09-27T02:17:35.244Z,52.11
2022-09-27T02:20:21.283Z,51.79
2022-09-27T02:23:20.281Z,51.94
2022-09-27T02:26:01.988Z,52.32
2022-09-27T02:28:58.411Z,52.41
2022-09-27T02:31:35.046Z,52.46
2022-09-27T02:34:15.158Z,51.76
2022-09-27T02:36:46.163Z,52.07
2022-09-27T02:39:17.175Z,51.91
2022-09-27T02:41:47.701Z,51.94
2022-09-27T02:44:20.354Z,51.89
2022-09-27T02:47:20.701Z,51.31
2022-09-27T02:50:34.597Z,51.16
2022-09-27T02:53:38.037Z,51.34
2022-09-27T02:56:33.177Z,51.09
2022-09-27T02:59:38.170Z,50.82
2022-09-27T03:02:39.755Z,50.64
2022-09-27T03:05:59.534Z,50.53
2022-09-27T03:08:30.330Z,50.68
2022-09-27T03:11:00.864Z,50.61
2022-09-27T03:13:31.823Z,50.76
2022-09-27T03:16:07.645Z,50.94
2022-09-27T03:18:56.356Z,50.82
2022-09-27T03:21:45.006Z,50.06
2022-09-27T03:24:15.415Z,49.86
2022-09-27T03:26:45.511Z,50.17
2022-09-27T03:29:16.324Z,49.67
2022-09-27T03:31:51.621Z,49.15
2022-09-27T03:34:46.115Z,49.49
2022-09-27T03:37:17.622Z,49.25
2022-09-27T03:39:48.822Z,49.05
2022-09-27T03:42:19.634Z,49.00
2022-09-27T03:44:53.936Z,49.16
2022-09-27T03:47:24.689Z,48.51
2022-09-27T03:49:54.996Z,48.57
2022-09-27T03:52:25.707Z,49.19
2022-09-27T03:55:01.129Z,48.72
2022-09-27T03:57:33.878Z,48.89
2022-09-27T04:00:06.285Z,48.31
2022-09-27T04:02:44.233Z,48.88
2022-09-27T04:05:26.768Z,48.60
2022-09-27T04:08:04.324Z,48.28
2022-09-27T04:10:35.776Z,48.67
2022-09-27T04:13:08.573Z,48.06
2022-09-27T04:15:52.396Z,48.75
2022-09-27T04:18:35.831Z,47.62
2022-09-27T04:21:41.036Z,48.54
2022-09-27T04:24:13.340Z,48.87
2022-09-27T04:26:53.203Z,48.23
2022-09-27T04:29:27.171Z,47.96
2022-09-27T04:31:58.315Z,48.16
2022-09-27T04:35:05.481Z,48.49
2022-09-27T04:37:36.053Z,47.76
2022-09-27T04:40:09.836Z,47.72
2022-09-27T04:42:40.859Z,47.90
2022-09-27T04:45:11.504Z,47.94
2022-09-27T04:47:45.796Z,47.42
2022-09-27T04:50:17.456Z,47.64
2022-09-27T04:53:04.834Z,47.45
2022-09-27T04:55:35.593Z,47.42
2022-09-27T04:58:06.658Z,47.94
2022-09-27T05:00:37.704Z,47.61
2022-09-27T05:03:28.364Z,47.10
2022-09-27T05:06:02.521Z,47.38
2022-09-27T05:08:38.487Z,46.34
2022-09-27T05:11:31.694Z,47.44
2022-09-27T05:14:38.775Z,46.91
2022-09-27T05:17:27.214Z,46.66
2022-09-27T05:20:17.654Z,46.33
2022-09-27T05:23:04.626Z,46.84
2022-09-27T05:25:35.585Z,46.31
2022-09-27T05:28:07.536Z,46.78
2022-09-27T05:30:38.480Z,46.11
2022-09-27T05:33:14.310Z,45.04
2022-09-27T05:35:58.664Z,46.52
2022-09-27T05:38:32.849Z,45.98
2022-09-27T05:41:05.691Z,45.41
2022-09-27T05:43:38.534Z,44.02
2022-09-27T05:46:08.487Z,46.03
2022-09-27T05:48:41.360Z,46.47
2022-09-27T05:51:12.581Z,45.07
2022-09-27T05:53:44.209Z,45.11
2022-09-27T05:56:26.283Z,44.63
2022-09-27T05:59:22.652Z,45.02
2022-09-27T06:02:13.473Z,45.67
2022-09-27T06:05:05.169Z,45.17
2022-09-27T06:07:54.131Z,44.90
2022-09-27T06:10:33.819Z,45.34
2022-09-27T06:13:13.482Z,44.79
2022-09-27T06:15:48.529Z,44.10
2022-09-27T06:18:19.478Z,44.17
2022-09-27T06:20:52.437Z,44.74
2022-09-27T06:23:25.164Z,44.92
2022-09-27T06:25:57.065Z,44.67
2022-09-27T06:28:53.050Z,44.90
2022-09-27T06:31:23.565Z,44.18
2022-09-27T06:34:03.584Z,44.86
2022-09-27T06:36:34.619Z,44.90
2022-09-27T06:39:06.120Z,44.38
2022-09-27T06:41:45.362Z,43.96
2022-09-27T06:44:28.588Z,44.20
2022-09-27T06:47:28.654Z,43.91
2022-09-27T06:50:21.686Z,45.35
2022-09-27T06:52:51.312Z,43.64
2022-09-27T06:55:24.687Z,44.41
2022-09-27T06:58:21.058Z,44.91
2022-09-27T07:01:11.622Z,43.87
2022-09-27T07:04:14.934Z,43.22
2022-09-27T07:07:07.469Z,44.15
2022-09-27T07:09:41.487Z,43.67
2022-09-27T07:12:14.758Z,42.97
2022-09-27T07:14:45.681Z,43.37
2022-09-27T07:17:18.751Z,43.69
2022-09-27T07:19:51.311Z,43.65
2022-09-27T07:22:21.806Z,43.25
2022-09-27T07:24:57.928Z,42.91
2022-09-27T07:27:28.707Z,43.13
2022-09-27T07:30:00.404Z,43.26
2022-09-27T07:32:32.222Z,43.64
2022-09-27T07:35:02.958Z,42.95
2022-09-27T07:37:38.740Z,44.02
2022-09-27T07:40:11.221Z,43.19
2022-09-27T07:42:45.257Z,43.69
2022-09-27T07:45:15.844Z,43.29
2022-09-27T07:48:10.951Z,42.93
2022-09-27T07:51:09.771Z,42.85
2022-09-27T07:53:46.391Z,42.13
2022-09-27T07:56:36.999Z,42.88
2022-09-27T07:59:09.501Z,42.50
2022-09-27T08:01:41.006Z,42.64
2022-09-27T08:04:11.171Z,41.98
2022-09-27T08:06:41.446Z,42.20
2022-09-27T08:09:11.775Z,42.17
2022-09-27T08:11:47.904Z,42.49
2022-09-27T08:14:20.021Z,42.18
2022-09-27T08:16:53.452Z,41.95
2022-09-27T08:19:46.643Z,42.81
2022-09-27T08:22:41.888Z,44.32
2022-09-27T08:25:25.787Z,44.39
2022-09-27T08:28:07.972Z,43.31
2022-09-27T08:30:48.068Z,43.55
2022-09-27T08:33:18.728Z,43.45
2022-09-27T08:35:49.827Z,44.05
2022-09-27T08:38:20.331Z,43.88
2022-09-27T08:41:03.298Z,45.00
2022-09-27T08:43:40.216Z,44.24
2022-09-27T08:46:39.904Z,45.52
2022-09-27T08:49:32.915Z,44.28
2022-09-27T08:52:08.762Z,45.44
2022-09-27T08:54:41.104Z,45.14
2022-09-27T08:57:14.776Z,45.05
2022-09-27T09:00:11.452Z,45.45
2022-09-27T09:02:44.286Z,45.33
2022-09-27T09:05:36.571Z,44.66
2022-09-27T09:09:02.082Z,45.14
2022-09-27T09:12:01.731Z,45.86
2022-09-27T09:14:58.581Z,46.43
2022-09-27T09:17:45.684Z,46.25
2022-09-27T09:20:39.851Z,45.87
2022-09-27T09:23:31.848Z,45.83
2022-09-27T09:26:20.146Z,45.74
2022-09-27T09:28:59.243Z,45.36
2022-09-27T09:31:50.220Z,45.38
2022-09-27T09:34:27.762Z,45.80
2022-09-27T09:37:25.996Z,45.57
2022-09-27T09:40:12.136Z,45.49
2022-09-27T09:43:07.217Z,45.67
2022-09-27T09:46:13.054Z,45.78
2022-09-27T09:48:57.519Z,46.10
2022-09-27T09:51:36.731Z,46.66
2022-09-27T09:54:08.637Z,46.39
2022-09-27T09:56:49.020Z,47.27
2022-09-27T09:59:36.937Z,46.92
2022-09-27T10:02:28.774Z,46.57
2022-09-27T10:05:08.087Z,47.79
2022-09-27T10:07:41.155Z,47.51
2022-09-27T10:10:17.510Z,46.91
2022-09-27T10:13:06.760Z,46.99
2022-09-27T10:15:41.302Z,46.65
2022-09-27T10:18:20.103Z,47.05
2022-09-27T10:21:04.128Z,46.60
2022-09-27T10:23:35.569Z,47.53
2022-09-27T10:26:22.914Z,47.57
2022-09-27T10:28:53.516Z,48.16
2022-09-27T10:31:40.160Z,48.06
2022-09-27T10:34:21.301Z,48.20
2022-09-27T10:37:21.859Z,47.52
2022-09-27T10:40:02.199Z,49.01
2022-09-27T10:42:39.853Z,48.66
2022-09-27T10:45:33.116Z,47.83
2022-09-27T10:48:26.705Z,48.27
2022-09-27T10:51:06.843Z,48.06
2022-09-27T10:53:52.013Z,49.08
2022-09-27T10:56:34.406Z,48.67
2022-09-27T10:59:07.223Z,49.35
2022-09-27T11:01:47.979Z,48.46
2022-09-27T11:04:40.680Z,48.38
2022-09-27T11:07:19.776Z,48.57
2022-09-27T11:10:06.983Z,49.35
2022-09-27T11:12:41.930Z,49.01
2022-09-27T11:15:25.659Z,48.89
2022-09-27T11:18:02.618Z,50.06
2022-09-27T11:20:58.201Z,47.57
2022-09-27T11:23:56.138Z,47.27
2022-09-27T11:26:38.563Z,48.00
2022-09-27T11:29:17.327Z,48.39
2022-09-27T11:32:34.060Z,47.95
2022-09-27T11:35:23.649Z,47.70
2022-09-27T11:38:11.068Z,47.65
2022-09-27T11:41:05.422Z,47.36
2022-09-27T11:43:48.039Z,47.15
2022-09-27T11:46:52.034Z,47.23
2022-09-27T11:49:40.864Z,48.36
2022-09-27T11:52:35.733Z,47.66
2022-09-27T11:55:44.611Z,47.96
2022-09-27T11:58:27.905Z,49.22
2022-09-27T12:01:10.584Z,47.78
2022-09-27T12:04:19.294Z,48.01
2022-09-27T12:06:58.411Z,48.52
2022-09-27T12:09:38.718Z,47.73
2022-09-27T12:12:18.713Z,47.30
2022-09-27T12:14:53.325Z,47.71
2022-09-27T12:17:38.882Z,47.99
2022-09-27T12:20:25.970Z,48.50
2022-09-27T12:23:19.168Z,48.12
2022-09-27T12:26:38.949Z,48.46
2022-09-27T12:29:15.399Z,48.81
2022-09-27T12:31:59.876Z,48.35
2022-09-27T12:34:38.519Z,49.07
2022-09-27T12:37:21.440Z,48.73
2022-09-27T12:40:04.961Z,49.40
2022-09-27T12:42:50.531Z,49.11
2022-09-27T12:46:00.720Z,48.80
2022-09-27T12:48:58.987Z,48.91
2022-09-27T12:51:38.418Z,49.66
2022-09-27T12:54:33.679Z,49.37
2022-09-27T12:57:13.580Z,49.96
2022-09-27T12:59:52.056Z,50.45
2022-09-27T13:03:04.007Z,50.07
2022-09-27T13:05:43.699Z,51.19
2022-09-27T13:08:30.104Z,50.27
2022-09-27T13:11:31.121Z,50.15
2022-09-27T13:14:04.281Z,51.05
2022-09-27T13:16:45.539Z,50.28
2022-09-27T13:19:37.931Z,49.95
2022-09-27T13:22:31.790Z,50.55
2022-09-27T13:25:49.624Z,50.21
2022-09-27T13:29:05.159Z,49.67
2022-09-27T13:32:04.244Z,49.47
2022-09-27T13:34:56.322Z,50.55
2022-09-27T13:38:01.158Z,50.10
2022-09-27T13:40:45.253Z,51.02
2022-09-27T13:43:50.696Z,49.84
2022-09-27T13:46:38.688Z,51.08
2022-09-27T13:49:34.993Z,50.39
2022-09-27T13:52:38.343Z,50.47
2022-09-27T13:55:46.866Z,50.19
2022-09-27T13:58:53.736Z,50.70
2022-09-27T14:02:15.618Z,49.97
2022-09-27T14:04:53.118Z,50.54
2022-09-27T14:07:54.745Z,50.01
2022-09-27T14:10:26.719Z,51.29
2022-09-27T14:13:00.673Z,51.95
2022-09-27T14:15:34.309Z,51.55
2022-09-27T14:18:15.852Z,52.03
2022-09-27T14:20:50.274Z,51.49
2022-09-27T14:23:40.649Z,51.63
2022-09-27T14:26:31.626Z,50.60
2022-09-27T14:29:04.009Z,51.65
2022-09-27T14:31:38.169Z,51.58
2022-09-27T14:34:17.239Z,51.51
2022-09-27T14:37:09.598Z,51.50
2022-09-27T14:40:01.609Z,50.94
2022-09-27T14:42:39.796Z,51.95
2022-09-27T14:45:37.638Z,50.33
2022-09-27T14:48:38.609Z,50.79
2022-09-27T14:51:14.828Z,51.22
2022-09-27T14:53:52.015Z,51.80
2022-09-27T14:56:30.900Z,51.68
2022-09-27T14:59:12.656Z,52.01
2022-09-27T15:01:54.427Z,50.93
2022-09-27T15:04:26.423Z,51.24
2022-09-27T15:06:57.755Z,50.14
2022-09-27T15:09:32.822Z,51.19
2022-09-27T15:12:06.834Z,51.33
2022-09-27T15:14:42.654Z,51.50
2022-09-27T15:17:22.176Z,50.92
2022-09-27T15:20:22.426Z,50.25
2022-09-27T15:22:53.910Z,51.91
2022-09-27T15:25:26.350Z,51.84
2022-09-27T15:28:00.624Z,52.05
2022-09-27T15:30:38.658Z,51.25
2022-09-27T15:33:22.217Z,52.31
2022-09-27T15:35:58.881Z,51.82
2022-09-27T15:38:50.698Z,52.46
2022-09-27T15:41:22.929Z,52.40
2022-09-27T15:43:54.932Z,52.25
2022-09-27T15:46:36.221Z,52.86
2022-09-27T15:49:34.955Z,51.33
2022-09-27T15:52:10.887Z,52.38
2022-09-27T15:54:41.084Z,52.77
2022-09-27T15:57:14.440Z,52.23
2022-09-27T15:59:44.771Z,52.91
2022-09-27T16:02:20.810Z,52.14
2022-09-27T16:04:50.448Z,50.78
2022-09-27T16:07:24.513Z,53.04
2022-09-27T16:09:56.939Z,52.59
2022-09-27T16:12:31.736Z,52.66
2022-09-27T16:15:02.180Z,52.70
2022-09-27T16:17:32.278Z,53.21
2022-09-27T16:20:02.602Z,52.89
2022-09-27T16:22:33.658Z,53.05
2022-09-27T16:25:03.710Z,53.08
2022-09-27T16:27:34.152Z,53.30
2022-09-27T16:30:04.946Z,53.09
2022-09-27T16:32:35.887Z,53.23
2022-09-27T16:35:06.070Z,53.08
2022-09-27T16:37:37.304Z,53.11
2022-09-27T16:40:12.399Z,52.89
2022-09-27T16:42:43.721Z,52.54
2022-09-27T16:45:18.962Z,52.90
2022-09-27T16:47:50.309Z,53.24
2022-09-27T16:50:38.712Z,53.12
2022-09-27T16:53:10.072Z,52.87
2022-09-27T16:55:40.546Z,53.01
2022-09-27T16:58:11.499Z,52.99
2022-09-27T17:00:43.301Z,52.63
2022-09-27T17:03:13.881Z,53.30
2022-09-27T17:05:43.935Z,53.14
2022-09-27T17:08:14.178Z,53.23
2022-09-27T17:10:49.226Z,52.06
2022-09-27T17:13:19.599Z,53.16
2022-09-27T17:15:49.959Z,53.19
2022-09-27T17:18:20.201Z,53.22
2022-09-27T17:20:50.340Z,53.21
2022-09-27T17:23:20.452Z,53.38
2022-09-27T17:25:50.719Z,53.19
2022-09-27T17:28:20.778Z,53.20
2022-09-27T17:30:51.785Z,53.41
2022-09-27T17:33:23.257Z,53.67
2022-09-27T17:36:04.351Z,52.55
2022-09-27T17:38:34.467Z,53.84
2022-09-27T17:41:04.883Z,53.78
2022-09-27T17:43:39.015Z,53.73
2022-09-27T17:46:15.109Z,53.63
2022-09-27T17:49:03.757Z,54.21
2022-09-27T17:51:36.592Z,53.44
2022-09-27T17:54:11.737Z,53.89
2022-09-27T17:56:44.102Z,54.21
2022-09-27T17:59:19.261Z,53.67
2022-09-27T18:01:51.011Z,54.29
2022-09-27T18:04:21.905Z,54.10
2022-09-27T18:06:52.045Z,53.92
2022-09-27T18:09:22.744Z,54.12
2022-09-27T18:11:52.779Z,53.99
2022-09-27T18:14:25.340Z,54.68
2022-09-27T18:16:58.870Z,54.80
2022-09-27T18:19:29.392Z,54.46
2022-09-27T18:22:02.043Z,53.90
2022-09-27T18:24:33.381Z,54.21
2022-09-27T18:27:05.439Z,54.36
2022-09-27T18:29:35.852Z,53.62
2022-09-27T18:32:09.017Z,53.46
2022-09-27T18:34:44.295Z,54.66
2022-09-27T18:37:14.785Z,54.31
2022-09-27T18:39:44.870Z,54.86
2022-09-27T18:42:14.931Z,54.68
2022-09-27T18:44:45.816Z,54.46
2022-09-27T18:47:15.889Z,54.57
2022-09-27T18:49:46.373Z,54.73
2022-09-27T18:52:16.406Z,54.70
2022-09-27T18:54:46.559Z,54.61
2022-09-27T18:57:16.670Z,54.93
2022-09-27T18:59:50.699Z,55.19
2022-09-27T19:02:21.472Z,54.96
2022-09-27T19:04:51.802Z,54.37
2022-09-27T19:07:21.920Z,54.44
2022-09-27T19:09:53.414Z,54.75
2022-09-27T19:12:23.646Z,55.11
2022-09-27T19:14:53.814Z,54.64
2022-09-27T19:17:23.911Z,54.38
2022-09-27T19:19:54.748Z,54.90
2022-09-27T19:22:24.910Z,54.87
2022-09-27T19:24:55.179Z,55.17
2022-09-27T19:27:26.080Z,55.23
2022-09-27T19:30:00.450Z,55.80
2022-09-27T19:32:31.283Z,54.71
2022-09-27T19:35:01.611Z,54.95
2022-09-27T19:37:31.986Z,54.94
2022-09-27T19:40:04.366Z,55.43
2022-09-27T19:42:34.893Z,54.93
2022-09-27T19:45:10.646Z,54.61
2022-09-27T19:47:42.114Z,54.97
2022-09-27T19:50:12.896Z,55.83
2022-09-27T19:52:44.476Z,55.39
2022-09-27T19:55:15.802Z,55.65
2022-09-27T19:57:46.602Z,55.05
2022-09-27T20:00:16.929Z,54.66
2022-09-27T20:02:47.631Z,55.83
2022-09-27T20:05:18.778Z,55.44
2022-09-27T20:07:49.753Z,55.18
2022-09-27T20:10:20.052Z,55.70
2022-09-27T20:12:52.995Z,55.48
2022-09-27T20:15:23.888Z,55.02
2022-09-27T20:17:54.203Z,55.02
2022-09-27T20:20:25.341Z,55.37
2022-09-27T20:22:55.446Z,54.46
2022-09-27T20:25:27.303Z,54.61
2022-09-27T20:27:57.556Z,54.63
2022-09-27T20:30:27.678Z,55.59
2022-09-27T20:33:16.305Z,54.80
2022-09-27T20:35:55.330Z,54.08
2022-09-27T20:38:25.987Z,55.31
2022-09-27T20:40:57.615Z,55.38
2022-09-27T20:43:29.402Z,56.47
2022-09-27T20:46:04.485Z,55.31
2022-09-27T20:48:36.984Z,55.79
2022-09-27T20:51:09.744Z,56.12
2022-09-27T20:53:41.028Z,54.85
2022-09-27T20:56:30.695Z,54.51
2022-09-27T20:59:04.113Z,54.60
2022-09-27T21:01:35.594Z,55.14
2022-09-27T21:04:07.816Z,54.60
2022-09-27T21:06:38.434Z,54.65
2022-09-27T21:09:10.172Z,55.26
2022-09-27T21:11:40.793Z,55.05
2022-09-27T21:14:11.260Z,55.42
2022-09-27T21:16:41.868Z,57.41
2022-09-27T21:19:12.744Z,55.11
2022-09-27T21:21:42.927Z,55.13
2022-09-27T21:24:13.974Z,55.42
2022-09-27T21:26:44.289Z,55.58
2022-09-27T21:29:16.286Z,56.43
2022-09-27T21:31:46.832Z,55.76
2022-09-27T21:34:19.557Z,56.64
2022-09-27T21:36:49.982Z,56.78
2022-09-27T21:39:20.707Z,56.06
2022-09-27T21:41:50.951Z,56.79
2022-09-27T21:44:21.575Z,57.72
2022-09-27T21:46:53.538Z,55.71
2022-09-27T21:49:23.997Z,57.00
2022-09-27T21:51:54.801Z,56.26
2022-09-27T21:54:24.803Z,55.78
2022-09-27T21:56:54.966Z,57.36
2022-09-27T21:59:25.538Z,57.17
2022-09-27T22:01:55.776Z,57.15
2022-09-27T22:04:25.997Z,56.28
2022-09-27T22:06:56.698Z,57.04
2022-09-27T22:09:27.092Z,56.90
2022-09-27T22:11:58.090Z,56.56
2022-09-27T22:14:29.442Z,56.84
2022-09-27T22:16:59.465Z,56.67
2022-09-27T22:19:29.592Z,56.45
2022-09-27T22:22:00.008Z,56.76
2022-09-27T22:24:30.368Z,56.89
2022-09-27T22:27:00.573Z,56.90
2022-09-27T22:29:30.772Z,56.77
2022-09-27T22:32:00.855Z,57.22
2022-09-27T22:34:31.020Z,56.42
2022-09-27T22:37:02.236Z,56.64
2022-09-27T22:39:32.497Z,56.46
2022-09-27T22:42:02.621Z,56.67
2022-09-27T22:44:34.669Z,56.89
2022-09-27T22:47:04.799Z,56.78
2022-09-27T22:49:34.835Z,56.79
2022-09-27T22:52:05.019Z,56.78
2022-09-27T22:54:35.062Z,56.06
2022-09-27T22:57:05.540Z,56.14
2022-09-27T22:59:35.662Z,57.71
2022-09-27T23:02:06.231Z,56.61
2022-09-27T23:04:36.511Z,55.83
2022-09-27T23:07:06.678Z,56.30
2022-09-27T23:09:37.042Z,56.53
2022-09-27T23:12:08.672Z,56.21
2022-09-27T23:14:42.483Z,56.32
2022-09-27T23:17:12.923Z,56.05
2022-09-27T23:19:43.228Z,55.88
2022-09-27T23:22:13.544Z,56.43
2022-09-27T23:24:43.911Z,57.50
2022-09-27T23:27:32.524Z,56.60
2022-09-27T23:30:02.926Z,56.31
2022-09-27T23:32:33.333Z,56.31
2022-09-27T23:35:03.573Z,56.30
2022-09-27T23:37:33.774Z,56.58
2022-09-27T23:40:04.283Z,55.86
2022-09-27T23:42:35.299Z,55.75
2022-09-27T23:45:05.751Z,55.90
2022-09-27T23:47:36.096Z,56.08
2022-09-27T23:50:06.793Z,56.90
2022-09-27T23:52:36.211Z,56.42
2022-09-27T23:55:07.298Z,55.77
2022-09-27T23:57:37.978Z,55.86
